Portada
METAR-TAF:

METAR-TAF

Aeroports :

Bordj Badji Mokhtar, Algèria

latitud: 21-22-30N, longitud: 000-55-26E, altitud: 396 m

METAR: manca

Hora: 10:58 (09:58 UTC)

Pronòstic

L'informe es va fer fa 1 hora i 58 minuts, a les 08:00 UTC
Pronòstic vàlid del 25 a les 09 UTC al 25 a les 18 UTC
Vent 14 kt del Nord/Nord-Est
Visibilitat: 8000 m
Escasses núvols a una alçada de 4600 ft
Núvols disperses a una alçada de 10000 ft
Temporalment
l' 25 a les 09 UTC al 25 a les 12 UTC
Núvols disperses a una alçada de 4600 ft, Cumulus congestus.
Probabilitat 30% :
Temporalment
l' 25 a les 09 UTC al 25 a les 12 UTC
Vent 24 kt del Nord/Nord-Est
Visibilitat: 4000 m
Escasses núvols a una alçada de 4000 ft, Cumulonimbus.
torb baixa de sorra

TAF: DATM 250800Z 2509/2518 02014KT 8000 FEW046 SCT100 TEMPO 2509/2512 SCT046TCU PROB30 TEMPO 2509/2512 02024KT 4000 DRSA FEW040CB

Observacions i pronòstics meteorològics de més de 4000 aeroports (METAR i TAF).

Les estacions disponibles són els punts grocs i vermells al mapa.

Posi el ratolí al punt desitjat per veure el nom de l'estació.

Feu clic per veure les observacions i els pronòstics meteorològics.

Per canviar el mapa: feu clic els botons verds amb una creu de color negre per apropar; al botó verd amb un guió per allunyar la imatge; o en les fletxes verdes per a mapes adjacents.


METAR-TAF: